Time;durP1;ratioP1;P1;durP2;ratioP2;P2;SDS_P1;SDS_P2;PMS_P1;PMS_P2;Temp;Humidity;BMP_temperature;BMP_pressure;BME280_temperature;BME280_humidity;BME280_pressure;Samples;Min_cycle;Max_cycle;Signal;HPM_P1;HPM_P2
2023/02/22 00:00:44;;;;;;;1.17;1.07;;;8.90;99.90;8.80;100647.00;;;;4963789;28;88424;-68
2023/02/22 00:03:17;;;;;;;1.40;0.73;;;8.90;99.90;8.80;100644.00;;;;4963451;28;88708;-68
2023/02/22 00:05:46;;;;;;;4.87;0.90;;;8.80;99.90;8.80;100636.00;;;;4964383;28;99929;-68
2023/02/22 00:08:14;;;;;;;0.87;0.70;;;8.80;99.90;8.70;100648.00;;;;4964457;28;87503;-71
2023/02/22 00:10:39;;;;;;;4.40;1.10;;;8.80;99.90;8.70;100641.00;;;;4964424;28;98245;-68
2023/02/22 00:13:12;;;;;;;1.57;1.00;;;8.80;99.90;8.70;100640.00;;;;4964166;28;117106;-69
2023/02/22 00:15:40;;;;;;;1.60;0.80;;;8.70;99.90;8.60;100643.00;;;;4962361;28;87168;-69
2023/02/22 00:18:09;;;;;;;4.47;1.33;;;8.70;99.90;8.60;100638.00;;;;4945134;28;87827;-68
2023/02/22 00:20:37;;;;;;;1.13;0.90;;;8.70;99.90;8.50;100642.00;;;;4963847;28;87420;-69
2023/02/22 00:23:08;;;;;;;1.37;0.90;;;8.60;99.90;8.50;100640.00;;;;4946624;28;88578;-68
2023/02/22 00:25:35;;;;;;;2.13;1.37;;;8.60;99.90;8.40;100637.00;;;;4948538;28;88550;-68
2023/02/22 00:28:01;;;;;;;1.80;1.17;;;8.60;99.90;8.40;100636.00;;;;4963918;28;108291;-68
2023/02/22 00:30:30;;;;;;;4.73;1.23;;;8.50;99.90;8.40;100635.00;;;;4965525;28;87866;-68
2023/02/22 00:32:57;;;;;;;2.57;0.70;;;8.50;99.90;8.30;100636.00;;;;4963335;28;87461;-67
2023/02/22 00:35:26;;;;;;;1.70;1.00;;;8.40;99.90;8.30;100645.00;;;;4964510;28;88321;-66
2023/02/22 00:37:57;;;;;;;0.30;0.30;;;8.40;99.90;8.20;100642.00;;;;4962919;28;87117;-67
2023/02/22 00:40:29;;;;;;;1.03;0.83;;;8.30;99.90;8.20;100637.00;;;;4960967;28;87802;-66
2023/02/22 00:42:56;;;;;;;2.23;0.47;;;8.30;99.90;8.10;100638.00;;;;4962357;28;86672;-66
2023/02/22 00:45:25;;;;;;;2.80;0.87;;;8.20;99.90;8.10;100639.00;;;;4966851;28;87862;-66
2023/02/22 00:47:51;;;;;;;3.80;1.00;;;8.20;99.90;8.00;100639.00;;;;4963666;28;87251;-66
2023/02/22 00:50:18;;;;;;;1.80;0.87;;;8.10;99.90;7.90;100639.00;;;;4958847;28;88442;-67
2023/02/22 00:52:44;;;;;;;4.70;0.50;;;8.10;99.90;7.90;100640.00;;;;4963922;28;88779;-67
2023/02/22 00:55:17;;;;;;;2.43;1.13;;;8.00;99.90;7.90;100636.00;;;;4945922;28;111918;-68
2023/02/22 00:57:44;;;;;;;2.03;0.80;;;7.90;99.90;7.80;100642.00;;;;4962163;28;87639;-67
2023/02/22 01:00:17;;;;;;;0.93;0.50;;;8.10;99.90;7.80;100641.00;;;;4959823;28;87102;-66
2023/02/22 01:02:43;;;;;;;2.63;1.27;;;7.90;99.90;7.70;100644.00;;;;4964870;28;87592;-66
2023/02/22 01:05:12;;;;;;;0.70;0.50;;;7.90;99.90;7.70;100637.00;;;;4959686;28;116219;-66
2023/02/22 01:07:38;;;;;;;4.20;1.33;;;7.80;99.90;7.70;100634.00;;;;4965631;28;100443;-66
2023/02/22 01:10:07;;;;;;;1.00;0.53;;;7.80;99.90;7.70;100636.00;;;;4963629;28;87022;-68
2023/02/22 01:12:34;;;;;;;1.60;0.67;;;7.80;99.90;7.60;100632.00;;;;4959743;28;87507;-67
2023/02/22 01:15:03;;;;;;;1.30;1.03;;;7.80;99.90;7.60;100629.00;;;;4963760;28;88759;-68
2023/02/22 01:17:29;;;;;;;1.10;0.80;;;7.70;99.90;7.50;100621.00;;;;4947542;28;97838;-67
2023/02/22 01:19:55;;;;;;;5.77;0.97;;;7.70;99.90;7.50;100625.00;;;;4944568;28;97900;-66
2023/02/22 01:22:22;;;;;;;2.73;1.57;;;7.70;99.90;7.50;100630.00;;;;4959337;28;118003;-66
2023/02/22 01:24:49;;;;;;;1.57;1.00;;;7.60;99.90;7.40;100631.00;;;;4959093;28;109642;-66
2023/02/22 01:27:16;;;;;;;0.90;0.90;;;7.90;99.90;7.40;100631.00;;;;4967268;28;87996;-66
2023/02/22 01:29:42;;;;;;;3.17;1.13;;;7.50;99.90;7.40;100633.00;;;;4963013;28;87699;-66
2023/02/22 01:32:10;;;;;;;1.30;0.73;;;7.60;99.90;7.40;100630.00;;;;4959709;28;86834;-66
2023/02/22 01:34:36;;;;;;;3.03;1.27;;;7.60;99.90;7.40;100629.00;;;;4964334;28;87805;-66
2023/02/22 01:37:02;;;;;;;2.33;1.23;;;7.50;99.90;7.30;100631.00;;;;4963790;28;87499;-66
2023/02/22 01:39:28;;;;;;;2.47;1.50;;;7.40;99.90;7.30;100634.00;;;;4966614;28;108606;-67
2023/02/22 01:41:54;;;;;;;2.53;1.23;;;7.40;99.90;7.30;100644.00;;;;4959128;28;89307;-66
2023/02/22 01:44:36;;;;;;;2.30;1.40;;;7.40;99.90;7.20;100636.00;;;;4965808;28;87178;-66
2023/02/22 01:47:04;;;;;;;8.23;1.77;;;7.40;99.90;7.20;100632.00;;;;4956953;28;87376;-66
2023/02/22 01:49:47;;;;;;;2.70;1.37;;;7.40;99.90;7.20;100632.00;;;;4959975;28;91880;-67
2023/02/22 01:52:18;;;;;;;7.90;1.43;;;7.40;99.90;7.30;100628.00;;;;4962618;28;88004;-67
2023/02/22 01:54:54;;;;;;;5.30;1.73;;;7.30;99.90;7.20;100634.00;;;;4951295;28;87468;-67
2023/02/22 01:57:29;;;;;;;1.50;1.07;;;7.90;99.90;7.20;100634.00;;;;4964928;28;97454;-67
2023/02/22 02:00:00;;;;;;;2.33;1.43;;;7.40;99.90;7.20;100634.00;;;;4967960;28;87722;-67
2023/02/22 02:02:27;;;;;;;4.40;1.67;;;7.30;99.90;7.20;100626.00;;;;4951074;28;90273;-67
2023/02/22 02:04:55;;;;;;;8.37;1.43;;;7.90;99.90;7.10;100619.00;;;;4964460;28;118237;-67
2023/02/22 02:07:22;;;;;;;1.83;1.70;;;7.30;99.90;7.20;100623.00;;;;4967103;28;102046;-67
2023/02/22 02:10:01;;;;;;;2.50;1.67;;;7.70;99.90;7.10;100617.00;;;;4962711;28;108289;-66
2023/02/22 02:12:30;;;;;;;2.57;1.40;;;7.70;99.90;7.10;100623.00;;;;4934699;28;90078;-67
2023/02/22 02:15:27;;;;;;;7.53;2.00;;;7.30;99.90;7.10;100620.00;;;;4949380;28;90057;-68
2023/02/22 02:17:56;;;;;;;3.80;1.60;;;7.30;99.90;7.10;100614.00;;;;4963964;28;87730;-68
2023/02/22 02:20:43;;;;;;;4.50;1.57;;;7.90;99.90;7.10;100621.00;;;;4966187;28;87598;-69
2023/02/22 02:23:42;;;;;;;2.27;1.83;;;7.30;99.90;7.10;100613.00;;;;4946523;28;110475;-68
2023/02/22 02:26:49;;;;;;;7.00;1.63;;;7.30;99.90;7.10;100620.00;;;;4960053;28;87706;-68
2023/02/22 02:29:39;;;;;;;10.20;3.10;;;7.30;99.90;7.10;100613.00;;;;4967573;28;94575;-67
2023/02/22 02:32:47;;;;;;;2.53;1.83;;;7.20;99.90;7.10;100606.00;;;;4964231;28;88833;-68
2023/02/22 02:35:47;;;;;;;2.53;1.30;;;7.20;99.90;7.00;100599.00;;;;4960463;28;87782;-66
2023/02/22 02:38:34;;;;;;;9.80;2.00;;;7.20;99.90;7.00;100605.00;;;;4965754;28;87217;-66
2023/02/22 02:41:12;;;;;;;5.13;2.23;;;7.20;99.90;7.10;100604.00;;;;4948408;28;87170;-67
2023/02/22 02:43:46;;;;;;;7.33;1.93;;;7.20;99.90;7.10;100602.00;;;;4967118;28;99406;-67
2023/02/22 02:46:19;;;;;;;4.40;2.33;;;7.20;99.90;7.10;100604.00;;;;4947378;28;87730;-66
2023/02/22 02:48:55;;;;;;;6.77;2.93;;;7.20;99.90;7.10;100606.00;;;;4967015;28;88120;-67
2023/02/22 02:51:24;;;;;;;8.47;2.07;;;7.30;99.90;7.10;100606.00;;;;4963955;28;86578;-66
2023/02/22 02:53:51;;;;;;;6.00;2.30;;;7.20;99.90;7.10;100602.00;;;;4946847;28;100315;-68
2023/02/22 02:56:18;;;;;;;13.37;2.10;;;7.30;99.90;7.10;100597.00;;;;4960516;28;94087;-68
2023/02/22 02:58:51;;;;;;;6.07;2.00;;;7.20;99.90;7.00;100599.00;;;;4967006;28;88576;-67
2023/02/22 03:01:38;;;;;;;8.70;2.53;;;7.20;99.90;7.00;100604.00;;;;4966736;28;86982;-67
2023/02/22 03:04:19;;;;;;;8.67;2.50;;;7.20;99.90;7.00;100607.00;;;;4966920;28;87909;-67
2023/02/22 03:07:18;;;;;;;4.13;2.33;;;7.20;99.90;6.90;100594.00;;;;4966553;28;87974;-67
2023/02/22 03:10:16;;;;;;;4.40;1.87;;;7.10;99.90;6.90;100586.00;;;;4945424;28;112190;-68
2023/02/22 03:12:57;;;;;;;8.03;2.83;;;7.10;99.90;6.90;100589.00;;;;4949517;28;103182;-68
2023/02/22 03:16:11;;;;;;;8.70;1.97;;;7.50;99.90;6.90;100593.00;;;;4947388;28;87675;-67
2023/02/22 03:19:07;;;;;;;3.47;2.00;;;7.00;99.90;6.80;100589.00;;;;4963849;28;86757;-66
2023/02/22 03:21:54;;;;;;;5.40;2.47;;;7.10;99.90;6.90;100591.00;;;;4951885;28;106544;-66
2023/02/22 03:25:06;;;;;;;10.13;2.53;;;7.40;99.90;6.80;100595.00;;;;4958789;28;99376;-68
2023/02/22 03:27:42;;;;;;;3.00;1.73;;;6.90;99.90;6.80;100595.00;;;;4951588;28;88305;-67
2023/02/22 03:30:38;;;;;;;7.20;2.37;;;7.00;99.90;6.80;100603.00;;;;4942724;28;87111;-67
2023/02/22 03:33:19;;;;;;;10.77;2.60;;;7.00;99.90;6.80;100594.00;;;;4926746;28;103709;-66
2023/02/22 03:36:02;;;;;;;3.50;2.07;;;7.30;99.90;6.80;100592.00;;;;4950289;28;87529;-67
2023/02/22 03:38:32;;;;;;;4.40;2.13;;;6.90;99.90;6.80;100596.00;;;;4943558;28;88006;-67
2023/02/22 03:41:01;;;;;;;7.67;2.30;;;7.40;99.90;6.70;100590.00;;;;4950453;28;88887;-67
2023/02/22 03:43:33;;;;;;;3.73;1.83;;;6.90;99.90;6.80;100598.00;;;;4965622;28;88428;-68
2023/02/22 03:46:02;;;;;;;5.97;3.03;;;6.90;99.90;6.80;100593.00;;;;4948453;28;100872;-68
2023/02/22 03:49:03;;;;;;;5.60;2.00;;;6.90;99.90;6.80;100592.00;;;;4967763;28;87909;-68
2023/02/22 03:51:29;;;;;;;3.23;2.00;;;7.00;99.90;6.80;100593.00;;;;4932131;28;104555;-67
2023/02/22 03:53:55;;;;;;;8.47;2.20;;;6.90;99.90;6.80;100594.00;;;;4965801;28;94197;-67
2023/02/22 03:56:34;;;;;;;10.73;2.63;;;6.90;99.90;6.80;100591.00;;;;4965066;28;109181;-67
2023/02/22 03:59:08;;;;;;;3.97;2.10;;;7.00;99.90;6.80;100596.00;;;;4946463;28;87478;-67
2023/02/22 04:01:34;;;;;;;3.83;2.20;;;7.00;99.90;6.80;100593.00;;;;4945669;28;92359;-67
2023/02/22 04:03:59;;;;;;;11.97;2.33;;;7.10;99.90;6.90;100592.00;;;;4962300;28;88334;-66
2023/02/22 04:06:27;;;;;;;6.50;2.83;;;7.20;99.90;6.90;100591.00;;;;4951661;28;110979;-67
2023/02/22 04:08:53;;;;;;;4.13;1.53;;;7.00;99.90;6.90;100589.00;;;;4965443;28;87606;-66
2023/02/22 04:11:19;;;;;;;5.23;3.37;;;7.00;99.90;6.90;100587.00;;;;4945055;28;116125;-67
2023/02/22 04:13:44;;;;;;;3.87;2.07;;;7.30;99.90;6.90;100579.00;;;;4964562;28;104335;-65
2023/02/22 04:16:10;;;;;;;5.20;2.23;;;7.10;99.90;6.90;100579.00;;;;4961793;28;109880;-66
2023/02/22 04:18:36;;;;;;;4.27;2.43;;;7.50;99.90;6.90;100587.00;;;;4965643;28;99545;-67
2023/02/22 04:21:02;;;;;;;6.53;2.10;;;7.10;99.90;6.90;100589.00;;;;4964829;28;115421;-66
2023/02/22 04:23:28;;;;;;;8.53;2.83;;;7.10;99.90;6.90;100596.00;;;;4964472;28;104040;-66
2023/02/22 04:25:54;;;;;;;14.23;3.80;;;7.00;99.90;6.90;100588.00;;;;4967334;28;109284;-66
2023/02/22 04:28:20;;;;;;;4.67;2.60;;;7.00;99.90;6.90;100583.00;;;;4968457;28;108808;-67
2023/02/22 04:30:46;;;;;;;3.10;2.57;;;7.10;99.90;6.90;100586.00;;;;4962927;28;87268;-67
2023/02/22 04:33:12;;;;;;;11.37;2.87;;;7.20;99.90;6.90;100589.00;;;;4965951;28;87098;-67
2023/02/22 04:35:38;;;;;;;13.43;3.33;;;7.40;99.90;6.90;100590.00;;;;4950277;28;86809;-66
2023/02/22 04:38:04;;;;;;;6.13;2.60;;;7.50;99.90;6.90;100579.00;;;;4967154;28;94590;-66
2023/02/22 04:40:30;;;;;;;4.10;3.07;;;7.00;99.90;6.90;100593.00;;;;4966148;28;87494;-66
2023/02/22 04:42:56;;;;;;;13.80;3.10;;;7.30;99.90;6.90;100586.00;;;;4965782;28;115915;-66
2023/02/22 04:45:22;;;;;;;10.20;3.10;;;7.70;99.90;6.90;100583.00;;;;4966670;28;109168;-66
2023/02/22 04:47:47;;;;;;;6.77;2.40;;;7.60;99.90;6.90;100576.00;;;;4949230;28;87584;-68
2023/02/22 04:50:15;;;;;;;4.80;2.33;;;7.00;99.90;6.90;100581.00;;;;4963506;28;116494;-67
2023/02/22 04:52:41;;;;;;;5.13;2.27;;;7.10;99.90;6.90;100577.00;;;;4948195;28;116179;-66
2023/02/22 04:55:07;;;;;;;8.77;2.60;;;7.00;99.90;6.90;100576.00;;;;4963447;28;87823;-68
2023/02/22 04:57:33;;;;;;;8.17;2.30;;;7.00;99.90;6.80;100574.00;;;;4964454;28;95598;-68
2023/02/22 04:59:58;;;;;;;4.03;2.30;;;6.90;99.90;6.80;100572.00;;;;4950040;28;115343;-69
2023/02/22 05:02:24;;;;;;;6.70;2.07;;;7.70;99.90;6.80;100576.00;;;;4965220;28;116063;-67
2023/02/22 05:04:50;;;;;;;6.23;2.43;;;7.50;99.90;6.80;100573.00;;;;4963408;28;87627;-66
2023/02/22 05:07:16;;;;;;;4.57;1.97;;;6.90;99.90;6.80;100572.00;;;;4963373;28;107763;-67
2023/02/22 05:09:43;;;;;;;5.93;2.17;;;7.60;99.90;6.80;100565.00;;;;4966131;28;94809;-67
2023/02/22 05:12:08;;;;;;;11.13;2.87;;;6.90;99.90;6.70;100564.00;;;;4964785;28;117840;-66
2023/02/22 05:14:34;;;;;;;4.80;2.50;;;6.90;99.90;6.70;100572.00;;;;4965533;28;111057;-67
2023/02/22 05:17:02;;;;;;;11.80;2.80;;;6.70;99.90;6.70;100562.00;;;;4962450;28;87285;-67
2023/02/22 05:19:27;;;;;;;4.83;2.40;;;7.20;99.90;6.60;100563.00;;;;4964678;28;87813;-67
2023/02/22 05:21:55;;;;;;;8.33;2.67;;;7.20;99.90;6.60;100559.00;;;;4961743;28;116894;-67
2023/02/22 05:24:21;;;;;;;6.53;2.40;;;6.70;99.90;6.60;100564.00;;;;4959053;28;86850;-67
2023/02/22 05:26:47;;;;;;;7.83;2.90;;;6.70;99.90;6.60;100572.00;;;;4960069;28;98238;-65
2023/02/22 05:29:13;;;;;;;3.57;2.13;;;7.40;99.90;6.60;100557.00;;;;4932634;28;93238;-65
2023/02/22 05:31:40;;;;;;;3.27;2.27;;;7.40;99.90;6.50;100556.00;;;;4922889;28;112674;-66
2023/02/22 05:34:06;;;;;;;9.77;2.87;;;6.60;99.90;6.50;100560.00;;;;4931341;28;87757;-66
2023/02/22 05:36:31;;;;;;;6.37;2.77;;;7.10;99.90;6.50;100550.00;;;;4929126;28;103383;-66
2023/02/22 05:38:57;;;;;;;16.37;2.40;;;7.20;99.90;6.50;100547.00;;;;4923829;28;117340;-66
2023/02/22 05:41:23;;;;;;;4.03;2.20;;;7.20;99.90;6.50;100552.00;;;;4928851;28;116963;-67
2023/02/22 05:43:49;;;;;;;4.67;2.10;;;7.30;99.90;6.50;100556.00;;;;4930368;28;109559;-66
2023/02/22 05:46:14;;;;;;;6.90;2.73;;;6.90;99.90;6.50;100553.00;;;;4941281;28;109104;-67
2023/02/22 05:48:40;;;;;;;9.00;2.40;;;7.30;99.90;6.50;100549.00;;;;4925907;28;97415;-67
2023/02/22 05:51:06;;;;;;;6.40;2.30;;;7.50;99.90;6.50;100563.00;;;;4929337;28;115014;-66
2023/02/22 05:53:32;;;;;;;2.30;1.90;;;6.80;99.90;6.50;100559.00;;;;4933510;28;87718;-67
2023/02/22 05:55:57;;;;;;;7.87;2.37;;;7.40;99.90;6.50;100562.00;;;;4932586;28;108428;-66
2023/02/22 05:58:23;;;;;;;8.63;3.10;;;6.60;99.90;6.60;100570.00;;;;4932725;28;88817;-66
2023/02/22 06:00:49;;;;;;;8.50;2.07;;;6.60;99.90;6.60;100566.00;;;;4927339;28;87958;-67
2023/02/22 06:03:14;;;;;;;7.10;2.20;;;6.70;99.90;6.60;100575.00;;;;4930203;28;110877;-67
2023/02/22 06:05:40;;;;;;;7.40;2.73;;;6.70;99.90;6.60;100571.00;;;;4940179;28;107422;-68
2023/02/22 06:08:07;;;;;;;11.07;2.67;;;6.70;99.90;6.60;100581.00;;;;4912273;28;117512;-67
2023/02/22 06:10:33;;;;;;;9.93;2.40;;;7.00;99.90;6.60;100571.00;;;;4927086;28;88927;-67
2023/02/22 06:13:02;;;;;;;7.83;2.97;;;7.40;99.90;6.60;100572.00;;;;4928558;28;109761;-66
2023/02/22 06:15:28;;;;;;;4.67;2.50;;;6.70;99.90;6.60;100578.00;;;;4930448;28;87813;-66
2023/02/22 06:17:55;;;;;;;7.63;2.50;;;6.70;99.90;6.60;100573.00;;;;4915085;28;109910;-66
2023/02/22 06:20:24;;;;;;;7.67;2.03;;;7.40;99.90;6.60;100579.00;;;;4932974;28;88961;-66
2023/02/22 06:22:51;;;;;;;6.60;2.07;;;7.10;99.90;6.60;100574.00;;;;4929547;28;87971;-67
2023/02/22 06:25:22;;;;;;;7.87;2.60;;;7.20;99.90;6.60;100581.00;;;;4942624;28;88003;-67
2023/02/22 06:27:48;;;;;;;4.77;2.57;;;6.80;99.90;6.70;100572.00;;;;4932503;28;88062;-66
2023/02/22 06:30:17;;;;;;;5.80;2.40;;;7.50;99.90;6.70;100577.00;;;;4930241;28;117902;-65
2023/02/22 06:32:43;;;;;;;15.20;3.63;;;6.80;99.90;6.70;100569.00;;;;4930011;28;87803;-67
2023/02/22 06:35:09;;;;;;;5.00;3.27;;;6.80;99.90;6.70;100581.00;;;;4929815;28;88263;-65
2023/02/22 06:37:35;;;;;;;5.73;3.03;;;6.70;99.90;6.70;100590.00;;;;4930370;28;117048;-65
2023/02/22 06:40:01;;;;;;;6.87;2.90;;;7.50;99.90;6.70;100597.00;;;;4935422;28;116899;-65
2023/02/22 06:42:27;;;;;;;7.53;3.37;;;7.40;99.90;6.70;100593.00;;;;4945168;28;109295;-66
2023/02/22 06:44:52;;;;;;;2.27;1.93;;;6.90;99.90;6.70;100597.00;;;;4932892;28;88516;-66
2023/02/22 06:47:18;;;;;;;8.30;3.97;;;7.50;99.90;6.70;100594.00;;;;4932360;28;118586;-66
2023/02/22 06:49:44;;;;;;;8.80;2.97;;;7.40;99.90;6.70;100594.00;;;;4934211;28;87704;-67
2023/02/22 06:52:09;;;;;;;5.43;3.23;;;7.50;99.90;6.80;100596.00;;;;4935518;28;111503;-66
2023/02/22 06:54:37;;;;;;;5.80;3.47;;;7.40;99.90;6.80;100599.00;;;;4933690;28;87938;-66
2023/02/22 06:57:03;;;;;;;6.43;2.77;;;6.90;99.90;6.80;100602.00;;;;4929808;28;99959;-66
2023/02/22 06:59:29;;;;;;;7.37;3.63;;;7.60;99.90;6.80;100604.00;;;;4933906;28;115742;-66
2023/02/22 07:01:54;;;;;;;7.70;2.97;;;7.00;99.90;6.80;100605.00;;;;4944844;28;87132;-67
2023/02/22 07:04:20;;;;;;;7.30;3.67;;;6.90;99.90;6.80;100608.00;;;;4932267;28;104354;-67
2023/02/22 07:06:48;;;;;;;10.57;2.87;;;7.50;99.90;6.90;100610.00;;;;4912987;28;118132;-66
2023/02/22 07:09:15;;;;;;;5.60;3.73;;;7.00;99.90;6.90;100617.00;;;;4936725;28;88709;-66
2023/02/22 07:11:42;;;;;;;9.60;3.07;;;7.70;99.90;6.90;100617.00;;;;4932031;28;97042;-66
2023/02/22 07:14:08;;;;;;;5.87;2.80;;;7.10;99.90;6.90;100616.00;;;;4934438;28;108924;-67
2023/02/22 07:16:33;;;;;;;6.90;3.23;;;7.00;99.90;7.00;100622.00;;;;4930642;28;107527;-67
2023/02/22 07:18:59;;;;;;;11.67;3.93;;;7.10;99.90;7.00;100610.00;;;;4929330;28;117803;-68
2023/02/22 07:21:29;;;;;;;6.70;3.30;;;7.10;99.90;7.00;100627.00;;;;4941840;28;110901;-68
2023/02/22 07:23:58;;;;;;;7.67;3.93;;;7.10;99.90;7.00;100621.00;;;;4934237;28;87974;-68
2023/02/22 07:26:24;;;;;;;11.00;3.77;;;7.10;99.90;7.00;100634.00;;;;4934745;28;87421;-69
2023/02/22 07:28:50;;;;;;;10.73;4.20;;;7.60;99.90;7.00;100627.00;;;;4931778;28;88112;-70
2023/02/22 07:31:16;;;;;;;16.10;4.63;;;7.30;99.90;7.10;100627.00;;;;4932177;28;108832;-70
2023/02/22 07:33:44;;;;;;;4.27;3.03;;;7.50;99.90;7.00;100623.00;;;;4935148;28;89116;-70
2023/02/22 07:36:12;;;;;;;9.23;3.70;;;7.20;99.90;7.10;100623.00;;;;4928846;28;110557;-70
2023/02/22 07:38:38;;;;;;;5.17;2.70;;;7.80;99.90;7.10;100624.00;;;;4940193;28;88065;-69
2023/02/22 07:41:04;;;;;;;5.47;3.27;;;7.60;99.90;7.10;100628.00;;;;4929300;28;110037;-69
2023/02/22 07:43:30;;;;;;;14.43;3.37;;;7.30;99.90;7.10;100625.00;;;;4931832;28;96172;-70
2023/02/22 07:45:58;;;;;;;15.30;4.43;;;7.40;99.90;7.20;100619.00;;;;4933015;28;89232;-68
2023/02/22 07:48:27;;;;;;;9.13;3.83;;;7.20;99.90;7.20;100630.00;;;;4930579;28;88678;-71
2023/02/22 07:50:53;;;;;;;7.60;3.00;;;7.30;99.90;7.20;100629.00;;;;4911964;28;87314;-69
2023/02/22 07:53:29;;;;;;;7.97;3.37;;;7.70;99.90;7.20;100624.00;;;;4925941;28;108148;-69
2023/02/22 07:55:56;;;;;;;12.13;3.37;;;7.40;99.90;7.20;100626.00;;;;4912521;28;88248;-69
2023/02/22 07:58:24;;;;;;;6.20;3.00;;;7.80;99.90;7.30;100617.00;;;;4928671;28;89105;-69
2023/02/22 08:00:50;;;;;;;6.17;3.43;;;7.60;99.90;7.30;100626.00;;;;4928761;28;101955;-70
2023/02/22 08:03:18;;;;;;;10.70;3.03;;;7.40;99.90;7.30;100621.00;;;;4929902;28;88788;-70
2023/02/22 08:05:48;;;;;;;5.93;2.60;;;7.90;99.90;7.30;100622.00;;;;4897779;28;90358;-70
2023/02/22 08:08:14;;;;;;;8.20;3.53;;;7.50;99.90;7.40;100616.00;;;;4929974;28;97434;-71
2023/02/22 08:10:41;;;;;;;8.30;4.23;;;7.50;99.90;7.40;100619.00;;;;4912729;28;87883;-71
2023/02/22 08:13:07;;;;;;;6.13;2.47;;;7.60;99.90;7.40;100624.00;;;;4930785;28;88614;-72
2023/02/22 08:15:38;;;;;;;6.33;3.53;;;7.60;99.90;7.50;100617.00;;;;4929656;28;102033;-72
2023/02/22 08:18:10;;;;;;;11.33;3.30;;;7.50;99.90;7.50;100621.00;;;;4911318;28;108630;-73
2023/02/22 08:20:38;;;;;;;8.13;2.93;;;7.60;99.90;7.50;100624.00;;;;4929156;28;87786;-73
2023/02/22 08:23:06;;;;;;;6.63;2.80;;;7.80;99.90;7.60;100624.00;;;;4926026;28;88975;-73
2023/02/22 08:25:32;;;;;;;3.37;2.63;;;7.80;99.90;7.60;100615.00;;;;4925162;28;99981;-73
2023/02/22 08:28:07;;;;;;;7.23;3.40;;;7.70;99.90;7.60;100619.00;;;;4926518;28;88326;-72
2023/02/22 08:30:35;;;;;;;7.73;2.83;;;7.70;99.90;7.60;100620.00;;;;4926685;28;95332;-74
2023/02/22 08:33:02;;;;;;;5.77;3.03;;;7.70;99.90;7.70;100626.00;;;;4925213;28;89642;-74
2023/02/22 08:35:31;;;;;;;6.20;3.20;;;7.80;99.90;7.70;100623.00;;;;4926347;28;88150;-73
2023/02/22 08:38:01;;;;;;;7.17;3.07;;;7.70;99.90;7.70;100616.00;;;;4926967;28;90273;-73
2023/02/22 08:40:30;;;;;;;9.37;2.30;;;7.80;99.90;7.70;100618.00;;;;4930239;28;87314;-73
2023/02/22 08:42:56;;;;;;;8.40;3.33;;;7.80;99.90;7.70;100622.00;;;;4926062;28;87906;-73
2023/02/22 08:45:21;;;;;;;3.60;2.20;;;7.80;99.90;7.70;100620.00;;;;4928555;28;89064;-73
2023/02/22 08:47:47;;;;;;;8.10;2.57;;;7.80;99.90;7.70;100622.00;;;;4925742;28;115182;-73
2023/02/22 08:50:28;;;;;;;16.17;3.90;;;7.80;99.90;7.80;100620.00;;;;4910387;28;88484;-74
2023/02/22 08:52:58;;;;;;;2.90;2.47;;;7.90;99.90;7.80;100612.00;;;;4893773;28;87953;-73
2023/02/22 08:55:27;;;;;;;6.27;2.40;;;7.90;99.90;7.80;100613.00;;;;4925558;28;90287;-76
2023/02/22 08:57:53;;;;;;;3.23;2.23;;;7.90;99.90;7.80;100619.00;;;;4927489;28;88613;-77
2023/02/22 09:00:23;;;;;;;5.40;1.97;;;7.90;99.90;7.80;100612.00;;;;4909712;28;110611;-76
2023/02/22 09:02:49;;;;;;;8.10;2.77;;;7.90;99.90;7.80;100605.00;;;;4907759;28;88172;-74
2023/02/22 09:05:15;;;;;;;8.90;3.37;;;7.90;99.90;7.80;100604.00;;;;4925658;28;103324;-71
2023/02/22 09:07:42;;;;;;;4.40;2.40;;;8.00;99.90;7.80;100611.00;;;;4897643;28;87956;-74
2023/02/22 09:10:16;;;;;;;6.77;3.33;;;7.90;99.90;7.80;100619.00;;;;4926251;28;100960;-72
2023/02/22 09:12:42;;;;;;;8.47;2.70;;;8.00;99.90;7.80;100612.00;;;;4926700;28;88662;-72
2023/02/22 09:15:08;;;;;;;4.70;2.37;;;7.90;99.90;7.80;100600.00;;;;4927440;28;117068;-73
2023/02/22 09:17:36;;;;;;;8.77;2.57;;;7.90;99.90;7.90;100602.00;;;;4926646;28;88616;-69
2023/02/22 09:20:07;;;;;;;6.27;2.43;;;7.90;99.90;7.90;100598.00;;;;4931273;28;87679;-69
2023/02/22 09:22:32;;;;;;;13.77;2.53;;;7.90;99.90;7.90;100600.00;;;;4926523;28;100031;-71
2023/02/22 09:24:58;;;;;;;16.37;2.40;;;8.00;99.90;7.90;100605.00;;;;4927325;28;105984;-69
2023/02/22 09:27:27;;;;;;;2.47;1.50;;;8.10;99.90;8.00;100601.00;;;;4925170;28;92933;-69
2023/02/22 09:29:53;;;;;;;7.30;2.43;;;8.10;99.90;8.00;100596.00;;;;4926644;28;87231;-71
2023/02/22 09:32:19;;;;;;;7.07;2.13;;;8.10;99.90;8.00;100592.00;;;;4930265;28;87910;-71
2023/02/22 09:34:46;;;;;;;1.97;1.77;;;8.10;99.90;8.10;100594.00;;;;4928415;28;88686;-68
2023/02/22 09:37:12;;;;;;;8.10;1.93;;;8.20;99.90;8.20;100598.00;;;;4925959;28;117667;-69
2023/02/22 09:39:38;;;;;;;3.23;1.47;;;8.30;99.90;8.30;100596.00;;;;4926381;28;110222;-70
2023/02/22 09:42:10;;;;;;;5.53;3.13;;;8.30;99.90;8.30;100595.00;;;;4926076;28;88377;-68
2023/02/22 09:44:47;;;;;;;12.60;1.93;;;8.40;99.90;8.40;100590.00;;;;4925816;28;101025;-69
2023/02/22 09:47:21;;;;;;;5.93;2.27;;;8.40;99.90;8.40;100588.00;;;;4928500;28;88053;-70
2023/02/22 09:50:14;;;;;;;11.50;2.73;;;8.40;99.90;8.40;100593.00;;;;4909253;28;100896;-69
2023/02/22 09:53:03;;;;;;;2.87;1.70;;;8.50;99.90;8.40;100591.00;;;;4914383;28;88156;-70
2023/02/22 09:55:50;;;;;;;9.73;2.47;;;8.60;99.90;8.50;100591.00;;;;4908476;28;87311;-67
2023/02/22 09:58:25;;;;;;;5.13;2.20;;;8.50;99.90;8.60;100592.00;;;;4909267;28;88091;-67
2023/02/22 10:00:58;;;;;;;4.60;2.73;;;8.60;99.90;8.70;100582.00;;;;4925835;28;95338;-67
2023/02/22 10:03:41;;;;;;;5.03;2.50;;;8.80;99.90;8.80;100587.00;;;;4909351;28;89250;-69
2023/02/22 10:06:14;;;;;;;2.23;1.83;;;8.80;99.90;8.80;100594.00;;;;4908784;28;87915;-69
2023/02/22 10:08:43;;;;;;;2.47;1.67;;;8.90;99.90;8.90;100577.00;;;;4907654;28;88296;-67
2023/02/22 10:11:32;;;;;;;3.07;1.97;;;9.00;99.90;8.90;100579.00;;;;4912585;28;89714;-68
2023/02/22 10:14:13;;;;;;;9.20;2.10;;;9.00;99.90;9.00;100591.00;;;;4930251;28;88748;-68
2023/02/22 10:17:11;;;;;;;4.10;1.23;;;9.10;99.90;9.00;100581.00;;;;4929478;28;88166;-68
2023/02/22 10:19:56;;;;;;;3.13;1.83;;;9.10;99.90;9.10;100581.00;;;;4917728;28;87900;-69
2023/02/22 10:22:59;;;;;;;1.97;1.73;;;9.20;99.90;9.10;100588.00;;;;4930235;28;88116;-67
2023/02/22 10:25:33;;;;;;;4.20;2.97;;;9.20;99.90;9.20;100574.00;;;;4923105;28;88090;-67
2023/02/22 10:28:09;;;;;;;7.13;1.90;;;9.20;99.90;9.20;100579.00;;;;4914711;28;88623;-67
2023/02/22 10:30:48;;;;;;;3.23;1.93;;;9.20;99.90;9.20;100573.00;;;;4908431;28;89027;-70
2023/02/22 10:33:33;;;;;;;3.20;2.53;;;9.30;99.90;9.20;100573.00;;;;4896816;28;87964;-68
2023/02/22 10:35:59;;;;;;;4.30;2.00;;;9.30;99.90;9.20;100572.00;;;;4927060;28;87872;-69
2023/02/22 10:38:28;;;;;;;2.00;1.80;;;9.30;99.90;9.30;100570.00;;;;4926477;28;110425;-70
2023/02/22 10:41:09;;;;;;;6.20;2.43;;;9.30;99.90;9.30;100566.00;;;;4911207;28;87920;-69
2023/02/22 10:43:39;;;;;;;3.37;1.37;;;9.30;99.90;9.30;100562.00;;;;4926349;28;109735;-68
2023/02/22 10:46:08;;;;;;;2.97;2.03;;;9.40;99.90;9.40;100552.00;;;;4911640;28;88106;-68
2023/02/22 10:48:37;;;;;;;4.47;3.00;;;9.40;99.90;9.40;100557.00;;;;4910219;28;109071;-67
2023/02/22 10:51:07;;;;;;;5.67;2.47;;;9.50;99.90;9.50;100560.00;;;;4916410;28;88297;-69
2023/02/22 10:53:36;;;;;;;7.00;2.23;;;9.60;99.90;9.50;100564.00;;;;4928961;28;88034;-69
2023/02/22 10:56:23;;;;;;;6.73;2.83;;;9.60;99.90;9.50;100558.00;;;;4927994;28;88868;-70
2023/02/22 10:59:00;;;;;;;2.97;2.43;;;9.60;99.90;9.60;100560.00;;;;4927475;28;88389;-69
2023/02/22 11:01:31;;;;;;;4.57;2.03;;;9.60;99.90;9.60;100561.00;;;;4916907;28;89276;-69
2023/02/22 11:04:10;;;;;;;8.87;2.60;;;9.60;99.90;9.70;100548.00;;;;4928050;28;111464;-69
2023/02/22 11:06:39;;;;;;;3.17;2.10;;;9.70;99.90;9.70;100560.00;;;;4911804;28;87706;-69
2023/02/22 11:09:23;;;;;;;5.27;3.23;;;9.70;99.90;9.80;100557.00;;;;4924099;28;111935;-68
2023/02/22 11:12:10;;;;;;;2.77;2.53;;;9.80;99.90;9.80;100554.00;;;;4910268;28;87915;-68
2023/02/22 11:14:37;;;;;;;7.80;3.07;;;9.80;99.90;9.80;100551.00;;;;4929134;28;88344;-68